sensor_id;sensor_type;location;lat;lon;timestamp;pressure;altitude;pressure_sealevel;temperature;humidity
6349;BME280;3207;42.648;23.406;2023-03-03T00:00:42;100230.69;;;7.11;nan
6349;BME280;3207;42.648;23.406;2023-03-03T00:03:11;100231.59;;;7.10;nan
6349;BME280;3207;42.648;23.406;2023-03-03T00:05:40;100234.63;;;7.03;nan
6349;BME280;3207;42.648;23.406;2023-03-03T00:08:07;100224.91;;;7.06;nan
6349;BME280;3207;42.648;23.406;2023-03-03T00:10:34;100227.34;;;7.09;nan
6349;BME280;3207;42.648;23.406;2023-03-03T00:13:01;100226.84;;;7.18;nan
6349;BME280;3207;42.648;23.406;2023-03-03T00:15:29;100213.16;;;7.15;nan
6349;BME280;3207;42.648;23.406;2023-03-03T00:17:58;100210.66;;;7.13;nan
6349;BME280;3207;42.648;23.406;2023-03-03T00:20:29;100217.84;;;7.24;nan
6349;BME280;3207;42.648;23.406;2023-03-03T00:23:08;100192.28;;;7.16;nan
6349;BME280;3207;42.648;23.406;2023-03-03T00:25:42;100204.63;;;7.28;nan
6349;BME280;3207;42.648;23.406;2023-03-03T00:28:21;100206.28;;;7.29;nan
6349;BME280;3207;42.648;23.406;2023-03-03T00:30:49;100206.28;;;7.29;nan
6349;BME280;3207;42.648;23.406;2023-03-03T00:33:25;100187.34;;;7.27;nan
6349;BME280;3207;42.648;23.406;2023-03-03T00:35:59;100203.25;;;7.37;nan
6349;BME280;3207;42.648;23.406;2023-03-03T00:38:34;100199.06;;;7.34;nan
6349;BME280;3207;42.648;23.406;2023-03-03T00:41:01;100201.41;;;7.23;nan
6349;BME280;3207;42.648;23.406;2023-03-03T00:43:34;100181.81;;;7.02;nan
6349;BME280;3207;42.648;23.406;2023-03-03T00:46:02;100191.69;;;7.11;nan
6349;BME280;3207;42.648;23.406;2023-03-03T00:48:40;100189.03;;;6.97;nan
6349;BME280;3207;42.648;23.406;2023-03-03T00:51:19;100179.28;;;7.01;nan
6349;BME280;3207;42.648;23.406;2023-03-03T00:53:51;100184.25;;;7.05;nan
6349;BME280;3207;42.648;23.406;2023-03-03T00:56:18;100181.41;;;7.10;nan
6349;BME280;3207;42.648;23.406;2023-03-03T00:58:44;100179.06;;;7.05;nan
6349;BME280;3207;42.648;23.406;2023-03-03T01:01:12;100182.16;;;7.12;nan
6349;BME280;3207;42.648;23.406;2023-03-03T01:03:41;100177.63;;;7.15;nan
6349;BME280;3207;42.648;23.406;2023-03-03T01:06:09;100180.56;;;7.09;nan
6349;BME280;3207;42.648;23.406;2023-03-03T01:08:36;100169.41;;;7.07;nan
6349;BME280;3207;42.648;23.406;2023-03-03T01:11:05;100170.75;;;7.14;nan
6349;BME280;3207;42.648;23.406;2023-03-03T01:13:35;100169.41;;;7.07;nan
6349;BME280;3207;42.648;23.406;2023-03-03T01:16:03;100157.78;;;6.98;nan
6349;BME280;3207;42.648;23.406;2023-03-03T01:18:30;100163.81;;;6.83;nan
6349;BME280;3207;42.648;23.406;2023-03-03T01:20:59;100167.47;;;6.79;nan
6349;BME280;3207;42.648;23.406;2023-03-03T01:23:26;100152.00;;;6.78;nan
6349;BME280;3207;42.648;23.406;2023-03-03T01:25:53;100160.97;;;6.72;nan
6349;BME280;3207;42.648;23.406;2023-03-03T01:28:21;100157.69;;;6.69;nan
6349;BME280;3207;42.648;23.406;2023-03-03T01:30:48;100153.66;;;6.63;nan
6349;BME280;3207;42.648;23.406;2023-03-03T01:33:15;100163.31;;;6.28;nan
6349;BME280;3207;42.648;23.406;2023-03-03T01:35:46;100159.03;;;6.44;nan
6349;BME280;3207;42.648;23.406;2023-03-03T01:38:14;100159.78;;;6.62;nan
6349;BME280;3207;42.648;23.406;2023-03-03T01:40:41;100159.53;;;6.67;nan
6349;BME280;3207;42.648;23.406;2023-03-03T01:43:11;100152.41;;;6.54;nan
6349;BME280;3207;42.648;23.406;2023-03-03T01:48:28;100154.84;;;6.73;nan
6349;BME280;3207;42.648;23.406;2023-03-03T01:50:59;100157.28;;;6.76;nan
6349;BME280;3207;42.648;23.406;2023-03-03T01:53:33;100151.16;;;6.46;nan
6349;BME280;3207;42.648;23.406;2023-03-03T01:56:05;100150.06;;;6.66;nan
6349;BME280;3207;42.648;23.406;2023-03-03T01:58:35;100158.44;;;6.71;nan
6349;BME280;3207;42.648;23.406;2023-03-03T02:01:04;100146.63;;;6.81;nan
6349;BME280;3207;42.648;23.406;2023-03-03T02:03:33;100151.66;;;6.84;nan
6349;BME280;3207;42.648;23.406;2023-03-03T02:06:05;100142.78;;;6.88;nan
6349;BME280;3207;42.648;23.406;2023-03-03T02:08:40;100144.44;;;6.89;nan
6349;BME280;3207;42.648;23.406;2023-03-03T02:11:09;100141.75;;;6.90;nan
6349;BME280;3207;42.648;23.406;2023-03-03T02:13:36;100139.75;;;6.95;nan
6349;BME280;3207;42.648;23.406;2023-03-03T02:16:03;100141.59;;;6.93;nan
6349;BME280;3207;42.648;23.406;2023-03-03T02:18:30;100131.97;;;6.95;nan
6349;BME280;3207;42.648;23.406;2023-03-03T02:21:01;100142.91;;;7.01;nan
6349;BME280;3207;42.648;23.406;2023-03-03T02:23:37;100141.22;;;6.99;nan
6349;BME280;3207;42.648;23.406;2023-03-03T02:26:08;100141.44;;;6.96;nan
6349;BME280;3207;42.648;23.406;2023-03-03T02:28:37;100138.75;;;6.98;nan
6349;BME280;3207;42.648;23.406;2023-03-03T02:31:07;100129.91;;;7.01;nan
6349;BME280;3207;42.648;23.406;2023-03-03T02:33:35;100136.63;;;7.05;nan
6349;BME280;3207;42.648;23.406;2023-03-03T02:36:02;100135.72;;;7.06;nan
6349;BME280;3207;42.648;23.406;2023-03-03T02:38:31;100135.63;;;7.07;nan
6349;BME280;3207;42.648;23.406;2023-03-03T02:41:06;100137.31;;;7.08;nan
6349;BME280;3207;42.648;23.406;2023-03-03T02:43:41;100136.19;;;7.12;nan
6349;BME280;3207;42.648;23.406;2023-03-03T02:46:14;100130.06;;;7.13;nan
6349;BME280;3207;42.648;23.406;2023-03-03T02:48:41;100135.13;;;7.16;nan
6349;BME280;3207;42.648;23.406;2023-03-03T02:51:08;100129.00;;;7.17;nan
6349;BME280;3207;42.648;23.406;2023-03-03T02:53:34;100122.78;;;7.20;nan
6349;BME280;3207;42.648;23.406;2023-03-03T02:56:01;100133.00;;;7.23;nan
6349;BME280;3207;42.648;23.406;2023-03-03T02:58:28;100134.03;;;7.20;nan
6349;BME280;3207;42.648;23.406;2023-03-03T03:00:57;100134.03;;;7.20;nan
6349;BME280;3207;42.648;23.406;2023-03-03T03:03:24;100126.72;;;7.11;nan
6349;BME280;3207;42.648;23.406;2023-03-03T03:05:50;100128.09;;;7.03;nan
6349;BME280;3207;42.648;23.406;2023-03-03T03:08:17;100128.16;;;7.01;nan
6349;BME280;3207;42.648;23.406;2023-03-03T03:10:44;100129.00;;;7.02;nan
6349;BME280;3207;42.648;23.406;2023-03-03T03:13:11;100126.59;;;6.98;nan
6349;BME280;3207;42.648;23.406;2023-03-03T03:15:38;100127.25;;;7.02;nan
6349;BME280;3207;42.648;23.406;2023-03-03T03:18:06;100113.94;;;6.92;nan
6349;BME280;3207;42.648;23.406;2023-03-03T03:20:35;100119.63;;;6.99;nan
6349;BME280;3207;42.648;23.406;2023-03-03T03:23:04;100132.19;;;7.07;nan
6349;BME280;3207;42.648;23.406;2023-03-03T03:25:31;100130.25;;;7.10;nan
6349;BME280;3207;42.648;23.406;2023-03-03T03:27:58;100127.63;;;7.10;nan
6349;BME280;3207;42.648;23.406;2023-03-03T03:30:25;100128.31;;;7.14;nan
6349;BME280;3207;42.648;23.406;2023-03-03T03:32:52;100131.59;;;7.17;nan
6349;BME280;3207;42.648;23.406;2023-03-03T03:35:20;100120.28;;;7.18;nan
6349;BME280;3207;42.648;23.406;2023-03-03T03:37:47;100119.69;;;7.13;nan
6349;BME280;3207;42.648;23.406;2023-03-03T03:40:14;100126.72;;;7.11;nan
6349;BME280;3207;42.648;23.406;2023-03-03T03:42:41;100119.50;;;7.16;nan
6349;BME280;3207;42.648;23.406;2023-03-03T03:45:09;100092.06;;;6.96;nan
6349;BME280;3207;42.648;23.406;2023-03-03T03:47:39;100121.94;;;7.19;nan
6349;BME280;3207;42.648;23.406;2023-03-03T03:50:07;100123.72;;;7.19;nan
6349;BME280;3207;42.648;23.406;2023-03-03T03:52:35;100119.50;;;7.16;nan
6349;BME280;3207;42.648;23.406;2023-03-03T03:55:03;100123.97;;;7.14;nan
6349;BME280;3207;42.648;23.406;2023-03-03T03:57:30;100131.00;;;7.12;nan
6349;BME280;3207;42.648;23.406;2023-03-03T03:59:57;100124.03;;;7.13;nan
6349;BME280;3207;42.648;23.406;2023-03-03T04:02:24;100118.84;;;7.13;nan
6349;BME280;3207;42.648;23.406;2023-03-03T04:04:51;100120.34;;;7.17;nan
6349;BME280;3207;42.648;23.406;2023-03-03T04:07:17;100126.31;;;7.19;nan
6349;BME280;3207;42.648;23.406;2023-03-03T04:09:45;100127.16;;;7.19;nan
6349;BME280;3207;42.648;23.406;2023-03-03T04:12:12;100129.47;;;7.24;nan
6349;BME280;3207;42.648;23.406;2023-03-03T04:14:39;100121.09;;;7.19;nan
6349;BME280;3207;42.648;23.406;2023-03-03T04:17:06;100102.00;;;7.04;nan
6349;BME280;3207;42.648;23.406;2023-03-03T04:19:33;100125.28;;;7.21;nan
6349;BME280;3207;42.648;23.406;2023-03-03T04:21:59;100123.78;;;7.17;nan
6349;BME280;3207;42.648;23.406;2023-03-03T04:24:26;100125.81;;;7.12;nan
6349;BME280;3207;42.648;23.406;2023-03-03T04:26:54;100125.63;;;7.15;nan
6349;BME280;3207;42.648;23.406;2023-03-03T04:29:21;100123.41;;;7.09;nan
6349;BME280;3207;42.648;23.406;2023-03-03T04:31:48;100125.25;;;7.07;nan
6349;BME280;3207;42.648;23.406;2023-03-03T04:34:15;100115.28;;;6.84;nan
6349;BME280;3207;42.648;23.406;2023-03-03T04:36:42;100126.69;;;6.97;nan
6349;BME280;3207;42.648;23.406;2023-03-03T04:39:08;100121.03;;;7.05;nan
6349;BME280;3207;42.648;23.406;2023-03-03T04:41:35;100106.22;;;6.91;nan
6349;BME280;3207;42.648;23.406;2023-03-03T04:44:03;100120.13;;;7.06;nan
6349;BME280;3207;42.648;23.406;2023-03-03T04:46:30;100056.38;;;6.69;nan
6349;BME280;3207;42.648;23.406;2023-03-03T04:48:57;100123.56;;;7.06;nan
6349;BME280;3207;42.648;23.406;2023-03-03T04:51:24;100115.38;;;6.98;nan
6349;BME280;3207;42.648;23.406;2023-03-03T04:53:51;100112.56;;;7.01;nan
6349;BME280;3207;42.648;23.406;2023-03-03T04:56:17;100126.31;;;7.03;nan
6349;BME280;3207;42.648;23.406;2023-03-03T04:58:44;100126.16;;;7.06;nan
6349;BME280;3207;42.648;23.406;2023-03-03T05:01:13;100129.69;;;7.05;nan
6349;BME280;3207;42.648;23.406;2023-03-03T05:03:40;100121.63;;;7.10;nan
6349;BME280;3207;42.648;23.406;2023-03-03T05:06:07;100126.91;;;7.08;nan
6349;BME280;3207;42.648;23.406;2023-03-03T05:08:33;100093.31;;;6.89;nan
6349;BME280;3207;42.648;23.406;2023-03-03T05:11:00;100123.47;;;7.08;nan
6349;BME280;3207;42.648;23.406;2023-03-03T05:13:28;100121.72;;;7.08;nan
6349;BME280;3207;42.648;23.406;2023-03-03T05:15:55;100102.75;;;7.06;nan
6349;BME280;3207;42.648;23.406;2023-03-03T05:18:25;100117.16;;;7.12;nan
6349;BME280;3207;42.648;23.406;2023-03-03T05:20:52;100119.84;;;7.10;nan
6349;BME280;3207;42.648;23.406;2023-03-03T05:23:19;100124.13;;;7.11;nan
6349;BME280;3207;42.648;23.406;2023-03-03T05:25:46;100120.78;;;7.09;nan
6349;BME280;3207;42.648;23.406;2023-03-03T05:28:14;100127.84;;;7.07;nan
6349;BME280;3207;42.648;23.406;2023-03-03T05:30:41;100121.53;;;7.11;nan
6349;BME280;3207;42.648;23.406;2023-03-03T05:33:09;100119.03;;;7.10;nan
6349;BME280;3207;42.648;23.406;2023-03-03T05:35:39;100115.09;;;7.03;nan
6349;BME280;3207;42.648;23.406;2023-03-03T05:38:06;100119.13;;;7.08;nan
6349;BME280;3207;42.648;23.406;2023-03-03T05:40:33;100091.97;;;6.98;nan
6349;BME280;3207;42.648;23.406;2023-03-03T05:43:00;100114.00;;;7.07;nan
6349;BME280;3207;42.648;23.406;2023-03-03T05:45:27;100121.13;;;7.03;nan
6349;BME280;3207;42.648;23.406;2023-03-03T05:47:54;100115.59;;;7.09;nan
6349;BME280;3207;42.648;23.406;2023-03-03T05:50:22;100121.13;;;7.03;nan
6349;BME280;3207;42.648;23.406;2023-03-03T05:52:51;100132.84;;;7.10;nan
6349;BME280;3207;42.648;23.406;2023-03-03T05:55:18;100132.84;;;7.10;nan
6349;BME280;3207;42.648;23.406;2023-03-03T05:57:46;100136.38;;;7.09;nan
6349;BME280;3207;42.648;23.406;2023-03-03T06:00:14;100128.59;;;7.09;nan
6349;BME280;3207;42.648;23.406;2023-03-03T06:02:41;100118.53;;;7.03;nan
6349;BME280;3207;42.648;23.406;2023-03-03T06:05:08;100135.88;;;7.18;nan
6349;BME280;3207;42.648;23.406;2023-03-03T06:07:36;100146.81;;;7.23;nan
6349;BME280;3207;42.648;23.406;2023-03-03T06:10:05;100145.06;;;7.24;nan
6349;BME280;3207;42.648;23.406;2023-03-03T06:12:32;100144.22;;;7.23;nan
6349;BME280;3207;42.648;23.406;2023-03-03T06:14:59;100143.75;;;7.01;nan
6349;BME280;3207;42.648;23.406;2023-03-03T06:17:26;100147.78;;;7.07;nan
6349;BME280;3207;42.648;23.406;2023-03-03T06:19:53;100138.00;;;6.96;nan
6349;BME280;3207;42.648;23.406;2023-03-03T06:22:20;100154.66;;;7.08;nan
6349;BME280;3207;42.648;23.406;2023-03-03T06:24:46;100147.25;;;7.16;nan
6349;BME280;3207;42.648;23.406;2023-03-03T06:27:15;100148.09;;;7.16;nan
6349;BME280;3207;42.648;23.406;2023-03-03T06:29:42;100159.25;;;7.18;nan
6349;BME280;3207;42.648;23.406;2023-03-03T06:32:09;100155.38;;;7.25;nan
6349;BME280;3207;42.648;23.406;2023-03-03T06:34:36;100158.75;;;7.27;nan
6349;BME280;3207;42.648;23.406;2023-03-03T06:37:03;100166.53;;;7.27;nan
6349;BME280;3207;42.648;23.406;2023-03-03T06:39:30;100158.81;;;7.26;nan
6349;BME280;3207;42.648;23.406;2023-03-03T06:41:57;100161.19;;;7.30;nan
6349;BME280;3207;42.648;23.406;2023-03-03T06:44:26;100162.22;;;7.42;nan
6349;BME280;3207;42.648;23.406;2023-03-03T06:46:53;100162.13;;;7.44;nan
6349;BME280;3207;42.648;23.406;2023-03-03T06:49:21;100172.72;;;7.41;nan
6349;BME280;3207;42.648;23.406;2023-03-03T06:51:48;100158.88;;;7.40;nan
6349;BME280;3207;42.648;23.406;2023-03-03T06:54:18;100159.88;;;7.38;nan
6349;BME280;3207;42.648;23.406;2023-03-03T06:56:45;100170.78;;;7.44;nan
6349;BME280;3207;42.648;23.406;2023-03-03T06:59:13;100177.41;;;7.50;nan
6349;BME280;3207;42.648;23.406;2023-03-03T07:01:43;100170.53;;;7.49;nan
6349;BME280;3207;42.648;23.406;2023-03-03T07:04:18;100174.06;;;7.32;nan
6349;BME280;3207;42.648;23.406;2023-03-03T07:06:47;100180.63;;;7.23;nan
6349;BME280;3207;42.648;23.406;2023-03-03T07:09:19;100182.78;;;7.31;nan
6349;BME280;3207;42.648;23.406;2023-03-03T07:11:48;100181.78;;;7.33;nan
6349;BME280;3207;42.648;23.406;2023-03-03T07:14:17;100192.22;;;7.18;nan
6349;BME280;3207;42.648;23.406;2023-03-03T07:16:55;100182.16;;;7.12;nan
6349;BME280;3207;42.648;23.406;2023-03-03T07:19:30;100208.28;;;7.24;nan
6349;BME280;3207;42.648;23.406;2023-03-03T07:22:00;100204.94;;;7.22;nan
6349;BME280;3207;42.648;23.406;2023-03-03T07:24:30;100204.38;;;7.17;nan
6349;BME280;3207;42.648;23.406;2023-03-03T07:26:59;100208.41;;;7.07;nan
6349;BME280;3207;42.648;23.406;2023-03-03T07:29:32;100212.00;;;6.89;nan
6349;BME280;3207;42.648;23.406;2023-03-03T07:32:01;100201.34;;;6.93;nan
6349;BME280;3207;42.648;23.406;2023-03-03T07:34:34;100205.91;;;6.57;nan
6349;BME280;3207;42.648;23.406;2023-03-03T07:37:06;100205.09;;;6.56;nan
6349;BME280;3207;42.648;23.406;2023-03-03T07:39:37;100217.34;;;6.70;nan
6349;BME280;3207;42.648;23.406;2023-03-03T07:42:16;100208.97;;;6.81;nan
6349;BME280;3207;42.648;23.406;2023-03-03T07:44:46;100207.13;;;6.83;nan
6349;BME280;3207;42.648;23.406;2023-03-03T07:47:22;100161.69;;;6.58;nan
6349;BME280;3207;42.648;23.406;2023-03-03T07:49:50;100205.97;;;7.04;nan
6349;BME280;3207;42.648;23.406;2023-03-03T07:52:23;100201.03;;;7.15;nan
6349;BME280;3207;42.648;23.406;2023-03-03T07:54:51;100200.94;;;7.17;nan
6349;BME280;3207;42.648;23.406;2023-03-03T07:57:22;100205.69;;;7.24;nan
6349;BME280;3207;42.648;23.406;2023-03-03T07:59:51;100214.50;;;7.38;nan
6349;BME280;3207;42.648;23.406;2023-03-03T08:02:44;100211.28;;;7.48;nan
6349;BME280;3207;42.648;23.406;2023-03-03T08:05:30;100216.50;;;7.48;nan
6349;BME280;3207;42.648;23.406;2023-03-03T08:08:18;100215.22;;;7.55;nan
6349;BME280;3207;42.648;23.406;2023-03-03T08:10:49;100218.31;;;7.62;nan
6349;BME280;3207;42.648;23.406;2023-03-03T08:13:18;100215.44;;;7.66;nan
6349;BME280;3207;42.648;23.406;2023-03-03T08:15:48;100213.19;;;7.60;nan
6349;BME280;3207;42.648;23.406;2023-03-03T08:18:23;100213.59;;;7.68;nan
6349;BME280;3207;42.648;23.406;2023-03-03T08:20:54;100217.59;;;7.74;nan
6349;BME280;3207;42.648;23.406;2023-03-03T08:23:21;100223.16;;;7.68;nan
6349;BME280;3207;42.648;23.406;2023-03-03T08:25:50;100221.16;;;7.73;nan
6349;BME280;3207;42.648;23.406;2023-03-03T08:28:18;100220.41;;;7.85;nan
6349;BME280;3207;42.648;23.406;2023-03-03T08:30:45;100223.69;;;7.89;nan
6349;BME280;3207;42.648;23.406;2023-03-03T08:33:13;100223.78;;;7.87;nan
6349;BME280;3207;42.648;23.406;2023-03-03T08:35:41;100223.06;;;7.99;nan
6349;BME280;3207;42.648;23.406;2023-03-03T08:38:10;100223.63;;;8.04;nan
6349;BME280;3207;42.648;23.406;2023-03-03T08:40:37;100233.03;;;8.21;nan
6349;BME280;3207;42.648;23.406;2023-03-03T08:43:04;100226.63;;;8.13;nan
6349;BME280;3207;42.648;23.406;2023-03-03T08:45:31;100231.13;;;8.25;nan
6349;BME280;3207;42.648;23.406;2023-03-03T08:47:59;100223.78;;;8.31;nan
6349;BME280;3207;42.648;23.406;2023-03-03T08:50:27;100225.94;;;8.39;nan
6349;BME280;3207;42.648;23.406;2023-03-03T08:52:55;100237.47;;;8.49;nan
6349;BME280;3207;42.648;23.406;2023-03-03T08:55:22;100229.38;;;8.54;nan
6349;BME280;3207;42.648;23.406;2023-03-03T08:57:49;100233.94;;;8.64;nan
6349;BME280;3207;42.648;23.406;2023-03-03T09:00:17;100237.47;;;8.63;nan
6349;BME280;3207;42.648;23.406;2023-03-03T09:02:44;100223.78;;;8.60;nan
6349;BME280;3207;42.648;23.406;2023-03-03T09:05:12;100227.91;;;8.78;nan
6349;BME280;3207;42.648;23.406;2023-03-03T09:07:39;100199.69;;;8.70;nan
6349;BME280;3207;42.648;23.406;2023-03-03T09:10:10;100236.59;;;9.05;nan
6349;BME280;3207;42.648;23.406;2023-03-03T09:12:39;100238.72;;;9.13;nan
6349;BME280;3207;42.648;23.406;2023-03-03T09:15:14;100241.47;;;9.24;nan
6349;BME280;3207;42.648;23.406;2023-03-03T09:17:42;100252.84;;;9.23;nan
6349;BME280;3207;42.648;23.406;2023-03-03T09:20:32;100254.25;;;9.29;nan
6349;BME280;3207;42.648;23.406;2023-03-03T09:23:23;100246.16;;;9.19;nan
6349;BME280;3207;42.648;23.406;2023-03-03T09:25:55;100258.81;;;9.25;nan
6349;BME280;3207;42.648;23.406;2023-03-03T09:28:24;100253.78;;;9.22;nan
6349;BME280;3207;42.648;23.406;2023-03-03T09:30:52;100257.69;;;9.29;nan
6349;BME280;3207;42.648;23.406;2023-03-03T09:33:25;100249.69;;;9.32;nan
6349;BME280;3207;42.648;23.406;2023-03-03T09:35:58;100257.78;;;9.28;nan
6349;BME280;3207;42.648;23.406;2023-03-03T09:38:28;100253.75;;;9.36;nan
6349;BME280;3207;42.648;23.406;2023-03-03T09:41:29;100248.59;;;9.49;nan
6349;BME280;3207;42.648;23.406;2023-03-03T09:47:27;100248.03;;;9.44;nan
6349;BME280;3207;42.648;23.406;2023-03-03T09:50:08;100248.03;;;9.44;nan
6349;BME280;3207;42.648;23.406;2023-03-03T09:52:41;100249.94;;;9.54;nan
6349;BME280;3207;42.648;23.406;2023-03-03T09:55:30;100251.25;;;9.62;nan
6349;BME280;3207;42.648;23.406;2023-03-03T09:58:26;100241.75;;;9.61;nan
6349;BME280;3207;42.648;23.406;2023-03-03T10:01:03;100245.75;;;9.79;nan
6349;BME280;3207;42.648;23.406;2023-03-03T10:03:51;100241.69;;;9.87;nan
6349;BME280;3207;42.648;23.406;2023-03-03T10:06:27;100249.53;;;9.87;nan
6349;BME280;3207;42.648;23.406;2023-03-03T10:09:08;100248.44;;;10.04;nan
6349;BME280;3207;42.648;23.406;2023-03-03T10:11:48;100255.72;;;9.99;nan
6349;BME280;3207;42.648;23.406;2023-03-03T10:14:39;100254.03;;;9.98;nan
6349;BME280;3207;42.648;23.406;2023-03-03T10:17:25;100246.66;;;10.05;nan
6349;BME280;3207;42.648;23.406;2023-03-03T10:20:06;100256.28;;;10.04;nan
6349;BME280;3207;42.648;23.406;2023-03-03T10:22:46;100247.38;;;9.94;nan
6349;BME280;3207;42.648;23.406;2023-03-03T10:25:36;100253.53;;;9.93;nan
6349;BME280;3207;42.648;23.406;2023-03-03T10:31:14;100256.03;;;10.07;nan
6349;BME280;3207;42.648;23.406;2023-03-03T10:33:49;100257.53;;;10.11;nan
6349;BME280;3207;42.648;23.406;2023-03-03T10:36:34;100260.56;;;10.05;nan
6349;BME280;3207;42.648;23.406;2023-03-03T10:39:24;100263.38;;;10.15;nan
6349;BME280;3207;42.648;23.406;2023-03-03T10:42:10;100255.09;;;10.08;nan
6349;BME280;3207;42.648;23.406;2023-03-03T10:45:01;100256.09;;;10.20;nan
6349;BME280;3207;42.648;23.406;2023-03-03T10:47:49;100255.59;;;10.27;nan
6349;BME280;3207;42.648;23.406;2023-03-03T10:50:22;100263.13;;;10.32;nan
6349;BME280;3207;42.648;23.406;2023-03-03T10:52:53;100258.09;;;10.42;nan
6349;BME280;3207;42.648;23.406;2023-03-03T10:55:37;100253.69;;;10.30;nan
6349;BME280;3207;42.648;23.406;2023-03-03T10:58:28;100252.66;;;10.45;nan
6349;BME280;3207;42.648;23.406;2023-03-03T11:01:06;100248.03;;;10.61;nan
6349;BME280;3207;42.648;23.406;2023-03-03T11:04:10;100245.31;;;10.75;nan
6349;BME280;3207;42.648;23.406;2023-03-03T11:06:47;100252.31;;;10.87;nan
6349;BME280;3207;42.648;23.406;2023-03-03T11:09:33;100257.63;;;10.98;nan
6349;BME280;3207;42.648;23.406;2023-03-03T11:12:15;100257.16;;;11.17;nan
6349;BME280;3207;42.648;23.406;2023-03-03T11:14:46;100250.69;;;11.23;nan
6349;BME280;3207;42.648;23.406;2023-03-03T11:17:19;100242.75;;;11.35;nan
6349;BME280;3207;42.648;23.406;2023-03-03T11:20:00;100245.94;;;11.52;nan
6349;BME280;3207;42.648;23.406;2023-03-03T11:22:40;100239.69;;;11.65;nan
6349;BME280;3207;42.648;23.406;2023-03-03T11:25:22;100237.88;;;11.79;nan
6349;BME280;3207;42.648;23.406;2023-03-03T11:28:01;100230.06;;;11.90;nan
6349;BME280;3207;42.648;23.406;2023-03-03T11:30:43;100233.69;;;12.11;nan
6349;BME280;3207;42.648;23.406;2023-03-03T11:33:14;100220.63;;;12.33;nan
6349;BME280;3207;42.648;23.406;2023-03-03T11:35:51;100223.63;;;12.62;nan
6349;BME280;3207;42.648;23.406;2023-03-03T11:38:41;100228.97;;;12.94;nan
6349;BME280;3207;42.648;23.406;2023-03-03T11:41:18;100221.22;;;13.15;nan
6349;BME280;3207;42.648;23.406;2023-03-03T11:43:50;100222.81;;;13.38;nan
6349;BME280;3207;42.648;23.406;2023-03-03T11:46:22;100219.09;;;13.52;nan
6349;BME280;3207;42.648;23.406;2023-03-03T11:48:56;100211.84;;;13.76;nan
6349;BME280;3207;42.648;23.406;2023-03-03T11:51:33;100212.47;;;13.89;nan
6349;BME280;3207;42.648;23.406;2023-03-03T11:54:09;100196.97;;;13.86;nan
6349;BME280;3207;42.648;23.406;2023-03-03T11:56:42;100214.66;;;14.05;nan
6349;BME280;3207;42.648;23.406;2023-03-03T11:59:35;100202.41;;;13.95;nan
6349;BME280;3207;42.648;23.406;2023-03-03T12:02:19;100201.16;;;13.99;nan
6349;BME280;3207;42.648;23.406;2023-03-03T12:04:51;100196.19;;;14.16;nan
6349;BME280;3207;42.648;23.406;2023-03-03T12:07:30;100201.41;;;14.37;nan
6349;BME280;3207;42.648;23.406;2023-03-03T12:10:10;100204.69;;;14.50;nan
6349;BME280;3207;42.648;23.406;2023-03-03T12:12:42;100198.06;;;14.35;nan
6349;BME280;3207;42.648;23.406;2023-03-03T12:15:26;100188.00;;;14.61;nan
6349;BME280;3207;42.648;23.406;2023-03-03T12:21:09;100196.16;;;15.27;nan
6349;BME280;3207;42.648;23.406;2023-03-03T12:23:55;100194.00;;;15.61;nan
6349;BME280;3207;42.648;23.406;2023-03-03T12:26:33;100197.09;;;16.22;nan
6349;BME280;3207;42.648;23.406;2023-03-03T12:29:12;100190.72;;;16.71;nan
6349;BME280;3207;42.648;23.406;2023-03-03T12:31:49;100199.19;;;17.02;nan
6349;BME280;3207;42.648;23.406;2023-03-03T12:34:24;100195.00;;;16.82;nan
6349;BME280;3207;42.648;23.406;2023-03-03T12:37:18;100186.19;;;17.09;nan
6349;BME280;3207;42.648;23.406;2023-03-03T12:39:57;100181.25;;;17.24;nan
6349;BME280;3207;42.648;23.406;2023-03-03T12:42:39;100180.97;;;16.35;nan
6349;BME280;3207;42.648;23.406;2023-03-03T12:45:21;100179.81;;;16.47;nan
6349;BME280;3207;42.648;23.406;2023-03-03T12:47:59;100171.22;;;15.98;nan
6349;BME280;3207;42.648;23.406;2023-03-03T12:50:34;100185.22;;;16.08;nan
6349;BME280;3207;42.648;23.406;2023-03-03T12:53:11;100179.41;;;16.05;nan
6349;BME280;3207;42.648;23.406;2023-03-03T12:55:48;100177.97;;;16.20;nan
6349;BME280;3207;42.648;23.406;2023-03-03T12:58:26;100183.19;;;15.83;nan
6349;BME280;3207;42.648;23.406;2023-03-03T13:01:01;100181.78;;;15.98;nan
6349;BME280;3207;42.648;23.406;2023-03-03T13:03:38;100180.41;;;15.75;nan
6349;BME280;3207;42.648;23.406;2023-03-03T13:06:13;100177.06;;;15.83;nan
6349;BME280;3207;42.648;23.406;2023-03-03T13:08:56;100175.97;;;15.85;nan
6349;BME280;3207;42.648;23.406;2023-03-03T13:11:47;100178.75;;;15.64;nan
6349;BME280;3207;42.648;23.406;2023-03-03T13:14:23;100175.69;;;15.69;nan
6349;BME280;3207;42.648;23.406;2023-03-03T13:17:00;100177.59;;;15.19;nan
6349;BME280;3207;42.648;23.406;2023-03-03T13:19:32;100175.25;;;15.25;nan
6349;BME280;3207;42.648;23.406;2023-03-03T13:22:06;100164.78;;;14.85;nan
6349;BME280;3207;42.648;23.406;2023-03-03T13:24:37;100168.84;;;14.28;nan
6349;BME280;3207;42.648;23.406;2023-03-03T13:27:11;100162.66;;;14.09;nan
6349;BME280;3207;42.648;23.406;2023-03-03T13:29:40;100168.84;;;13.98;nan
6349;BME280;3207;42.648;23.406;2023-03-03T13:32:11;100163.16;;;13.40;nan
6349;BME280;3207;42.648;23.406;2023-03-03T13:34:46;100159.34;;;13.65;nan
6349;BME280;3207;42.648;23.406;2023-03-03T13:37:19;100161.13;;;13.85;nan
6349;BME280;3207;42.648;23.406;2023-03-03T13:39:55;100164.66;;;13.96;nan
6349;BME280;3207;42.648;23.406;2023-03-03T13:42:30;100158.22;;;13.88;nan
6349;BME280;3207;42.648;23.406;2023-03-03T13:44:59;100166.56;;;13.93;nan
6349;BME280;3207;42.648;23.406;2023-03-03T13:47:35;100169.25;;;14.03;nan
6349;BME280;3207;42.648;23.406;2023-03-03T13:50:17;100156.69;;;14.07;nan
6349;BME280;3207;42.648;23.406;2023-03-03T13:52:55;100148.44;;;13.90;nan
6349;BME280;3207;42.648;23.406;2023-03-03T13:55:29;100154.09;;;13.86;nan
6349;BME280;3207;42.648;23.406;2023-03-03T13:58:05;100153.75;;;13.79;nan
6349;BME280;3207;42.648;23.406;2023-03-03T14:00:43;100152.13;;;13.67;nan
6349;BME280;3207;42.648;23.406;2023-03-03T14:03:43;100154.22;;;13.64;nan
6349;BME280;3207;42.648;23.406;2023-03-03T14:06:14;100145.03;;;13.58;nan
6349;BME280;3207;42.648;23.406;2023-03-03T14:08:56;100150.66;;;13.33;nan